Time;durP1;ratioP1;P1;durP2;ratioP2;P2;SDS_P1;SDS_P2;PMS_P1;PMS_P2;Temp;Humidity;BMP_temperature;BMP_pressure;BME280_temperature;BME280_humidity;BME280_pressure;Samples;Min_cycle;Max_cycle;Signal;HPM_P1;HPM_P2
2022/12/25 00:01:24;;;;;;;49.30;16.52;;;;;;;5.05;100.00;101025.27;1778050;78;21162;-89
2022/12/25 00:03:51;;;;;;;45.25;15.68;;;;;;;5.07;100.00;101024.55;1806284;78;21614;-90
2022/12/25 00:06:18;;;;;;;42.33;15.70;;;;;;;5.06;100.00;101022.08;1768214;78;21027;-90
2022/12/25 00:08:45;;;;;;;44.40;15.70;;;;;;;5.05;100.00;101021.27;1785862;78;20965;-88
2022/12/25 00:11:15;;;;;;;48.98;17.12;;;;;;;5.04;100.00;101021.48;1772391;79;21885;-91
2022/12/25 00:13:43;;;;;;;43.30;14.70;;;;;;;5.05;100.00;101025.80;1778013;79;21028;-91
2022/12/25 00:16:22;;;;;;;45.33;15.58;;;;;;;4.99;100.00;101018.11;1771878;79;20968;-91
2022/12/25 00:18:50;;;;;;;49.40;15.88;;;;;;;4.98;100.00;101017.81;1788135;79;21000;-90
2022/12/25 00:21:18;;;;;;;46.85;15.95;;;;;;;4.98;100.00;101021.30;1799690;78;21066;-89
2022/12/25 00:23:45;;;;;;;44.00;15.80;;;;;;;4.98;100.00;101019.97;1785347;79;21944;-91
2022/12/25 00:26:15;;;;;;;48.28;16.97;;;;;;;4.99;100.00;101022.93;1776798;79;21555;-90
2022/12/25 00:28:42;;;;;;;50.83;17.00;;;;;;;4.98;100.00;101024.49;1768734;79;21500;-90
2022/12/25 00:31:13;;;;;;;44.35;15.98;;;;;;;4.94;100.00;101028.11;1769953;79;21492;-90
2022/12/25 00:33:42;;;;;;;43.25;15.13;;;;;;;4.89;100.00;101025.77;1771231;79;21456;-91
2022/12/25 00:36:10;;;;;;;49.77;17.02;;;;;;;4.88;100.00;101020.95;1751226;79;21266;-91
2022/12/25 00:38:38;;;;;;;43.63;15.50;;;;;;;4.89;100.00;101029.77;1737008;80;21039;-89
2022/12/25 00:41:08;;;;;;;51.08;16.10;;;;;;;4.90;100.00;101029.55;1783124;79;21101;-92
2022/12/25 00:43:34;;;;;;;46.88;15.72;;;;;;;4.88;100.00;101024.11;1727957;80;21141;-88
2022/12/25 00:46:04;;;;;;;47.58;16.07;;;;;;;4.86;100.00;101028.34;1733881;81;21571;-91
2022/12/25 00:48:31;;;;;;;47.38;15.90;;;;;;;4.88;100.00;101027.63;1725890;81;21096;-91
2022/12/25 00:54:38;;;;;;;46.08;16.12;;;;;;;4.86;100.00;101028.34;1729900;81;21128;-90
2022/12/25 00:57:04;;;;;;;45.70;16.30;;;;;;;4.82;100.00;101029.77;1730953;81;21018;-91
2022/12/25 00:59:33;;;;;;;48.55;17.17;;;;;;;4.81;100.00;101025.99;1741969;80;21071;-89
2022/12/25 01:04:44;;;;;;;49.73;16.75;;;;;;;4.79;100.00;101019.52;1733463;80;21137;-91
2022/12/25 01:07:10;;;;;;;46.40;16.50;;;;;;;4.80;100.00;101028.38;1731987;80;21114;-90
2022/12/25 01:12:22;;;;;;;46.63;16.55;;;;;;;4.80;100.00;101018.51;1741886;80;21195;-89
2022/12/25 01:14:48;;;;;;;54.65;17.60;;;;;;;4.78;100.00;101021.38;1739298;81;21062;-90
2022/12/25 01:20:55;;;;;;;52.50;17.07;;;;;;;4.77;100.00;101022.41;1734317;81;21070;-90
2022/12/25 01:23:21;;;;;;;57.15;19.00;;;;;;;4.76;100.00;101022.12;1727757;80;21046;-90
2022/12/25 01:25:47;;;;;;;58.83;18.25;;;;;;;4.75;100.00;101019.64;1741295;80;21139;-90
2022/12/25 01:28:15;;;;;;;54.35;18.42;;;;;;;4.72;100.00;101017.40;1730389;81;21141;-91
2022/12/25 01:30:48;;;;;;;51.18;17.90;;;;;;;4.69;100.00;101017.81;1734174;80;21033;-90
2022/12/25 01:33:14;;;;;;;54.13;17.92;;;;;;;4.70;100.00;101018.11;1744349;80;21107;-91
2022/12/25 01:35:41;;;;;;;54.98;18.77;;;;;;;4.73;100.00;101013.69;1729244;81;21076;-89
2022/12/25 01:38:07;;;;;;;60.90;18.73;;;;;;;4.72;100.00;101014.73;1713272;82;21041;-90
2022/12/25 01:40:34;;;;;;;54.70;18.20;;;;;;;4.67;100.00;101021.20;1760937;80;21137;-92
2022/12/25 01:43:00;;;;;;;51.45;16.93;;;;;;;4.72;100.00;101021.41;1779201;79;21004;-89
2022/12/25 01:45:35;;;;;;;53.63;17.80;;;;;;;4.70;100.00;101022.12;1768297;79;21035;-87
2022/12/25 01:48:05;;;;;;;53.87;18.25;;;;;;;4.71;100.00;101021.11;1783567;79;21666;-90
2022/12/25 01:54:17;;;;;;;55.73;18.40;;;;;;;4.65;100.00;101024.62;1775724;79;21124;-89
2022/12/25 01:56:46;;;;;;;56.98;18.40;;;;;;;4.60;100.00;101027.09;1720380;82;21114;-90
2022/12/25 01:59:16;;;;;;;63.83;20.05;;;;;;;4.61;100.00;101027.38;1702580;82;21098;-89
2022/12/25 02:01:43;;;;;;;63.13;21.37;;;;;;;4.57;100.00;101026.98;1685980;82;21605;-90
2022/12/25 02:04:17;;;;;;;57.48;19.85;;;;;;;4.55;100.00;101025.03;1680970;84;21200;-89
2022/12/25 02:06:44;;;;;;;59.27;19.00;;;;;;;4.55;100.00;101027.19;1678171;84;21128;-90
2022/12/25 02:09:10;;;;;;;63.85;21.33;;;;;;;4.55;100.00;101024.52;1685726;83;21094;-89
2022/12/25 02:14:21;;;;;;;61.15;19.17;;;;;;;4.52;100.00;101017.45;1681454;82;21077;-90
2022/12/25 02:16:53;;;;;;;58.25;19.12;;;;;;;4.49;100.00;101022.69;1681518;84;20987;-89
2022/12/25 02:19:48;;;;;;;64.97;20.10;;;;;;;4.48;100.00;101023.72;1684301;82;21129;-89
2022/12/25 02:22:36;;;;;;;58.95;19.23;;;;;;;4.46;100.00;101028.44;1684225;85;21571;-90
2022/12/25 02:25:19;;;;;;;64.30;20.30;;;;;;;4.46;100.00;101032.44;1684247;83;21042;-89
2022/12/25 02:28:10;;;;;;;58.40;19.02;;;;;;;4.48;100.00;101029.06;1684439;84;21082;-87
2022/12/25 02:30:51;;;;;;;62.65;20.75;;;;;;;4.50;100.00;101036.36;1675359;84;21002;-89
2022/12/25 02:36:07;;;;;;;64.30;20.52;;;;;;;4.43;100.00;101036.86;1593119;88;21188;-89
2022/12/25 02:38:37;;;;;;;66.42;21.20;;;;;;;4.39;100.00;101040.98;1570113;90;21083;-89
2022/12/25 02:41:11;;;;;;;67.67;19.37;;;;;;;4.39;100.00;101042.32;1569170;90;21583;-89
2022/12/25 03:12:58;;;;;;;75.55;20.05;;;;;;;4.12;100.00;101057.53;1631092;86;21170;-87
2022/12/25 03:18:14;;;;;;;66.20;20.43;;;;;;;4.07;100.00;101060.80;1639359;86;21014;-89
2022/12/25 03:29:01;;;;;;;65.52;20.55;;;;;;;4.04;100.00;101067.88;1614437;86;21119;-89
2022/12/25 03:31:50;;;;;;;71.55;21.15;;;;;;;4.03;100.00;101068.92;1654336;85;21529;-88
2022/12/25 03:38:08;;;;;;;70.00;20.48;;;;;;;4.01;100.00;101066.15;1624868;86;21591;-88
2022/12/25 04:36:17;;;;;;;58.90;17.37;;;;;;;3.55;100.00;101096.20;1789975;78;21459;-88
2022/12/25 04:38:44;;;;;;;58.92;17.05;;;;;;;3.55;100.00;101098.88;1785037;78;22125;-91
2022/12/25 04:41:12;;;;;;;56.08;15.43;;;;;;;3.52;100.00;101094.76;1801763;78;21607;-89
2022/12/25 04:43:38;;;;;;;62.03;17.73;;;;;;;3.57;100.00;101100.83;1778820;79;21587;-88
2022/12/25 04:46:05;;;;;;;57.20;17.48;;;;;;;3.56;100.00;101096.02;1786052;79;21551;-90
2022/12/25 04:48:34;;;;;;;51.15;15.95;;;;;;;3.58;100.00;101105.13;1792482;78;21047;-89
2022/12/25 04:51:17;;;;;;;61.00;16.80;;;;;;;3.58;100.00;101106.46;1773488;77;21334;-93
2022/12/25 04:53:44;;;;;;;52.73;14.78;;;;;;;3.60;100.00;101108.42;1672308;84;21100;-89
2022/12/25 04:56:11;;;;;;;54.08;15.70;;;;;;;3.57;100.00;101112.31;1692291;82;21012;-89
2022/12/25 04:58:37;;;;;;;55.12;16.67;;;;;;;3.58;100.00;101115.78;1650886;83;21096;-88
2022/12/25 05:01:04;;;;;;;59.50;16.57;;;;;;;3.58;100.00;101111.27;1693584;82;21075;-88
2022/12/25 05:03:31;;;;;;;62.00;17.37;;;;;;;3.59;100.00;101114.78;1698869;83;22694;-90
2022/12/25 05:05:57;;;;;;;55.28;16.10;;;;;;;3.60;100.00;101115.09;1699011;82;21112;-90
2022/12/25 05:08:24;;;;;;;56.77;17.00;;;;;;;3.58;100.00;101115.27;1699066;82;21120;-89
2022/12/25 05:14:30;;;;;;;55.98;16.23;;;;;;;3.58;100.00;101121.12;1688769;82;21245;-89
2022/12/25 05:16:56;;;;;;;52.93;14.95;;;;;;;3.57;100.00;101121.63;1694767;82;21265;-89
2022/12/25 05:19:23;;;;;;;58.45;16.45;;;;;;;3.55;100.00;101123.67;1694493;82;21596;-90
2022/12/25 05:21:49;;;;;;;56.00;17.32;;;;;;;3.55;100.00;101121.52;1690636;83;21768;-88
2022/12/25 05:24:15;;;;;;;55.70;16.37;;;;;;;3.51;100.00;101124.28;1697981;82;21084;-90
2022/12/25 05:26:41;;;;;;;58.50;17.35;;;;;;;3.48;100.00;101122.84;1694477;82;21592;-89
2022/12/25 05:29:08;;;;;;;53.38;16.70;;;;;;;3.51;100.00;101131.77;1698483;82;21795;-90
2022/12/25 05:31:34;;;;;;;60.88;15.90;;;;;;;3.49;100.00;101132.46;1698059;82;21578;-93
2022/12/25 05:34:00;;;;;;;54.05;15.72;;;;;;;3.51;100.00;101130.95;1698671;82;21009;-89
2022/12/25 05:36:27;;;;;;;59.25;17.60;;;;;;;3.51;100.00;101134.94;1685147;82;21649;-89
2022/12/25 05:38:53;;;;;;;54.05;17.50;;;;;;;3.48;100.00;101142.00;1688338;82;21024;-91
2022/12/25 05:41:19;;;;;;;58.28;16.02;;;;;;;3.46;100.00;101150.18;1694274;82;21651;-90
2022/12/25 05:43:46;;;;;;;57.17;16.93;;;;;;;3.48;100.00;101150.00;1693951;82;21612;-90
2022/12/25 05:46:13;;;;;;;55.58;16.65;;;;;;;3.50;100.00;101150.59;1665734;84;21665;-90
2022/12/25 05:48:39;;;;;;;61.90;15.75;;;;;;;3.49;100.00;101157.77;1740782;79;21194;-89
2022/12/25 05:51:08;;;;;;;53.33;15.63;;;;;;;3.51;100.00;101153.59;1791751;78;21059;-91
2022/12/25 05:53:35;;;;;;;60.85;16.27;;;;;;;3.50;100.00;101158.11;1798573;77;21116;-90
2022/12/25 05:56:04;;;;;;;52.60;16.20;;;;;;;3.53;100.00;101159.04;1790328;78;21030;-90
2022/12/25 05:58:32;;;;;;;58.33;15.98;;;;;;;3.47;100.00;101160.33;1771732;79;21023;-90
2022/12/25 06:00:59;;;;;;;57.35;17.30;;;;;;;3.48;100.00;101157.47;1774996;79;21497;-91
2022/12/25 06:03:27;;;;;;;52.98;16.05;;;;;;;3.49;100.00;101161.77;1777334;79;20965;-88
2022/12/25 06:09:34;;;;;;;55.38;16.60;;;;;;;3.52;100.00;101160.55;1655044;85;21117;-92
2022/12/25 06:12:00;;;;;;;59.08;16.77;;;;;;;3.47;100.00;101166.50;1651605;85;21156;-90
2022/12/25 06:14:26;;;;;;;58.35;17.37;;;;;;;3.46;100.00;101174.16;1657129;84;21066;-91
2022/12/25 06:16:53;;;;;;;53.83;17.02;;;;;;;3.48;100.00;101176.13;1672497;83;21204;-92
2022/12/25 06:23:00;;;;;;;58.78;17.67;;;;;;;3.57;100.00;101169.59;1659510;84;20955;-92
2022/12/25 06:25:26;;;;;;;60.90;17.55;;;;;;;3.56;100.00;101167.97;1665699;83;21533;-90
2022/12/25 06:27:54;;;;;;;63.95;18.80;;;;;;;3.55;100.00;101166.30;1683493;82;21687;-94
2022/12/25 06:30:21;;;;;;;61.55;17.82;;;;;;;3.61;100.00;101164.17;1604230;87;21046;-93
2022/12/25 06:32:47;;;;;;;66.05;19.25;;;;;;;3.67;100.00;101164.40;1593376;88;21325;-92
2022/12/25 06:35:13;;;;;;;61.65;18.70;;;;;;;3.71;100.00;101167.00;1583024;88;21034;-94
2022/12/25 06:37:40;;;;;;;80.07;21.12;;;;;;;3.69;100.00;101159.70;1581113;89;21117;-93
2022/12/25 06:40:07;;;;;;;79.40;21.10;;;;;;;3.62;100.00;101164.50;1583857;88;21658;-93
2022/12/25 06:49:55;;;;;;;80.32;23.65;;;;;;;3.67;100.00;101167.88;1587208;88;22221;-90
2022/12/25 06:52:21;;;;;;;68.07;19.35;;;;;;;3.70;100.00;101170.14;1598148;88;21621;-92
2022/12/25 06:54:47;;;;;;;60.17;17.50;;;;;;;3.74;100.00;101167.41;1594399;88;21557;-92
2022/12/25 06:57:14;;;;;;;63.65;18.42;;;;;;;3.77;100.00;101168.86;1578336;88;21565;-92
2022/12/25 06:59:40;;;;;;;60.10;17.48;;;;;;;3.75;100.00;101171.70;1586367;88;21159;-92
2022/12/25 07:02:19;;;;;;;64.35;18.12;;;;;;;3.69;100.00;101175.69;1607409;85;21059;-89
2022/12/25 07:04:45;;;;;;;64.55;18.07;;;;;;;3.68;100.00;101183.36;1678680;84;21062;-94
2022/12/25 07:07:12;;;;;;;58.08;17.90;;;;;;;3.69;100.00;101175.69;1676465;83;21017;-93
2022/12/25 07:09:41;;;;;;;66.42;18.15;;;;;;;3.73;100.00;101175.08;1679787;83;21062;-92
2022/12/25 07:12:20;;;;;;;61.83;16.62;;;;;;;3.77;100.00;101176.85;1675163;84;21172;-92
2022/12/25 07:14:49;;;;;;;63.20;18.48;;;;;;;3.80;100.00;101175.12;1677485;84;21085;-92
2022/12/25 07:17:17;;;;;;;63.33;17.95;;;;;;;3.82;100.00;101181.05;1685124;83;21045;-88
2022/12/25 07:19:45;;;;;;;59.63;17.90;;;;;;;3.82;100.00;101179.23;1681007;84;21124;-90
2022/12/25 07:22:12;;;;;;;57.67;16.48;;;;;;;3.77;100.00;101179.00;1681037;84;21034;-91
2022/12/25 07:24:38;;;;;;;62.05;16.97;;;;;;;3.79;100.00;101183.60;1681217;83;21166;-92
2022/12/25 07:30:45;;;;;;;69.45;19.07;;;;;;;3.91;100.00;101182.51;1797810;79;21024;-92
2022/12/25 07:33:12;;;;;;;63.15;17.27;;;;;;;3.94;100.00;101186.63;1785208;79;21012;-91
2022/12/25 07:39:19;;;;;;;66.65;18.23;;;;;;;3.98;100.00;101186.03;1795340;78;21052;-91
2022/12/25 07:41:45;;;;;;;62.67;18.45;;;;;;;3.99;100.00;101187.66;1785653;78;21032;-94
2022/12/25 07:44:11;;;;;;;68.83;19.87;;;;;;;4.00;100.00;101193.81;1777327;79;21031;-91
2022/12/25 07:46:38;;;;;;;65.60;18.90;;;;;;;4.04;100.00;101192.41;1794802;78;21032;-91
2022/12/25 07:49:04;;;;;;;67.08;19.45;;;;;;;4.06;100.00;101201.03;1802567;79;21079;-91
2022/12/25 07:55:12;;;;;;;70.15;20.17;;;;;;;4.14;100.00;101201.34;1781428;78;21051;-91
2022/12/25 07:57:38;;;;;;;75.57;19.92;;;;;;;4.20;100.00;101201.86;1780493;78;21040;-91
2022/12/25 08:00:07;;;;;;;68.90;18.85;;;;;;;4.26;100.00;101199.20;1795545;79;21072;-91
2022/12/25 08:02:33;;;;;;;70.30;19.40;;;;;;;4.27;100.00;101198.20;1789530;78;21551;-92
2022/12/25 08:08:41;;;;;;;61.83;17.92;;;;;;;4.39;100.00;101201.60;1778665;79;21047;-91
2022/12/25 08:11:09;;;;;;;70.28;19.23;;;;;;;4.36;100.00;101198.83;1774868;79;21035;-92
2022/12/25 08:13:36;;;;;;;64.60;19.70;;;;;;;4.39;100.00;101194.93;1780506;79;21540;-88
2022/12/25 08:16:08;;;;;;;69.87;19.23;;;;;;;4.43;100.00;101202.30;1802422;77;21600;-91
2022/12/25 08:18:36;;;;;;;63.13;17.65;;;;;;;4.44;100.00;101213.31;1785475;79;21166;-91
2022/12/25 08:21:08;;;;;;;53.78;17.82;;;;;;;4.44;100.00;101212.46;1770829;79;21027;-90
2022/12/25 08:23:38;;;;;;;61.30;18.07;;;;;;;4.40;100.00;101213.39;1808425;77;21800;-92
2022/12/25 08:26:07;;;;;;;62.58;17.65;;;;;;;4.39;100.00;101211.75;1793208;79;21068;-90
2022/12/25 08:28:34;;;;;;;65.50;19.23;;;;;;;4.46;100.00;101203.75;1776264;79;21000;-89
2022/12/25 08:34:41;;;;;;;55.83;16.85;;;;;;;4.66;100.00;101208.59;1771140;79;21094;-88
2022/12/25 08:37:08;;;;;;;57.48;16.93;;;;;;;4.66;100.00;101205.09;1782890;79;21836;-88
2022/12/25 08:39:34;;;;;;;60.20;18.07;;;;;;;4.64;100.00;101207.14;1795363;77;20998;-90
2022/12/25 08:42:00;;;;;;;59.67;17.82;;;;;;;4.73;100.00;101202.72;1778929;80;21475;-90
2022/12/25 08:44:27;;;;;;;64.47;18.23;;;;;;;4.76;100.00;101207.67;1779574;78;21082;-90
2022/12/25 08:46:53;;;;;;;62.65;17.02;;;;;;;4.78;100.00;101209.60;1780205;80;21522;-91
2022/12/25 08:49:19;;;;;;;52.65;16.32;;;;;;;4.80;100.00;101216.09;1786270;80;21592;-89
2022/12/25 08:55:27;;;;;;;56.15;16.82;;;;;;;4.85;100.00;101218.12;1777252;79;21236;-89
2022/12/25 08:57:53;;;;;;;59.10;15.65;;;;;;;4.85;100.00;101217.60;1780276;80;21123;-90
2022/12/25 09:00:19;;;;;;;52.35;15.78;;;;;;;4.88;100.00;101219.89;1795865;78;20989;-91
2022/12/25 09:02:46;;;;;;;85.15;21.07;;;;;;;4.87;100.00;101208.88;1783546;78;21508;-88
2022/12/25 09:05:12;;;;;;;62.50;18.30;;;;;;;4.86;100.00;101209.10;1795001;79;20992;-89
2022/12/25 09:07:38;;;;;;;52.93;15.85;;;;;;;4.89;100.00;101206.02;1784796;79;21055;-90
2022/12/25 09:13:21;;;;;;;59.67;18.20;;;;;;;4.88;100.00;101206.53;1792109;78;21576;-90
2022/12/25 09:15:47;;;;;;;83.80;26.80;;;;;;;4.83;100.00;101207.66;1771859;79;21071;-89
2022/12/25 09:18:13;;;;;;;64.92;18.80;;;;;;;4.88;100.00;101203.02;1772844;79;21106;-91
2022/12/25 09:20:40;;;;;;;56.58;17.65;;;;;;;4.82;100.00;101201.18;1789896;78;20988;-89
2022/12/25 09:23:06;;;;;;;54.60;17.10;;;;;;;4.86;100.00;101201.09;1799709;78;21007;-90
2022/12/25 09:25:32;;;;;;;55.55;15.93;;;;;;;4.88;100.00;101203.87;1778409;79;21031;-90
2022/12/25 09:27:58;;;;;;;53.10;16.35;;;;;;;4.94;100.00;101203.52;1803949;78;21059;-89
2022/12/25 09:30:25;;;;;;;53.45;16.57;;;;;;;5.01;100.00;101201.16;1787765;79;21008;-93
2022/12/25 09:32:51;;;;;;;53.50;16.77;;;;;;;5.04;100.00;101205.79;1769703;79;21028;-91
2022/12/25 09:35:17;;;;;;;52.00;16.05;;;;;;;5.11;100.00;101203.91;1785123;79;21994;-90
2022/12/25 09:37:44;;;;;;;57.78;16.25;;;;;;;5.15;100.00;101201.16;1802606;77;22065;-90
2022/12/25 09:40:18;;;;;;;55.38;17.17;;;;;;;5.17;100.00;101204.41;1791916;78;21274;-91
2022/12/25 09:42:44;;;;;;;52.38;16.62;;;;;;;5.15;100.00;101201.97;1689457;82;21112;-88
2022/12/25 09:45:38;;;;;;;51.40;16.77;;;;;;;5.09;100.00;101204.14;1680009;84;21072;-91
2022/12/25 09:48:05;;;;;;;55.35;17.00;;;;;;;5.09;100.00;101201.47;1687289;84;21796;-91
2022/12/25 09:50:48;;;;;;;60.38;17.12;;;;;;;5.05;100.00;101200.75;1689203;83;21093;-92
2022/12/25 09:53:19;;;;;;;61.92;17.73;;;;;;;5.05;100.00;101196.22;1651824;86;21163;-92
2022/12/25 09:59:26;;;;;;;62.55;19.12;;;;;;;5.09;100.00;101196.13;1611444;87;21688;-91
2022/12/25 10:02:06;;;;;;;66.67;18.52;;;;;;;5.01;100.00;101193.15;1608013;88;21389;-93
2022/12/25 10:04:56;;;;;;;65.55;19.60;;;;;;;5.04;100.00;101195.92;1568016;90;21022;-93
2022/12/25 10:08:01;;;;;;;72.32;19.77;;;;;;;4.98;100.00;101196.76;1565470;90;21649;-92
2022/12/25 10:10:45;;;;;;;69.60;19.37;;;;;;;4.96;100.00;101196.14;1591275;88;21522;-92
2022/12/25 10:13:41;;;;;;;73.75;20.25;;;;;;;5.00;100.00;101193.37;1600007;89;21109;-93
2022/12/25 10:16:21;;;;;;;66.53;18.57;;;;;;;4.97;100.00;101191.94;1595240;89;21251;-93
2022/12/25 10:19:11;;;;;;;76.15;20.88;;;;;;;4.95;100.00;101197.98;1592732;89;21546;-94
2022/12/25 10:29:07;;;;;;;84.37;22.00;;;;;;;4.93;100.00;101199.22;1596729;88;21137;-94
2022/12/25 10:34:06;;;;;;;87.45;21.35;;;;;;;4.93;100.00;101197.89;1588036;88;21113;-93
2022/12/25 10:36:33;;;;;;;85.17;22.35;;;;;;;4.92;100.00;101193.06;1599715;87;21194;-94
2022/12/25 10:46:24;;;;;;;100.55;25.75;;;;;;;4.85;100.00;101196.23;1634246;85;21022;-93
2022/12/25 10:48:58;;;;;;;118.95;31.23;;;;;;;4.92;100.00;101203.75;1638661;86;21102;-93
2022/12/25 10:51:31;;;;;;;117.82;29.67;;;;;;;4.92;100.00;101208.27;1634086;86;21192;-92
2022/12/25 10:54:00;;;;;;;111.12;28.23;;;;;;;4.84;100.00;101200.47;1633306;85;22363;-93
2022/12/25 10:56:28;;;;;;;125.60;30.12;;;;;;;4.81;100.00;101198.21;1628069;85;21204;-92
2022/12/25 10:59:06;;;;;;;129.15;32.83;;;;;;;4.75;100.00;101200.67;1628742;86;21200;-92
2022/12/25 11:01:32;;;;;;;130.15;32.93;;;;;;;4.78;100.00;101196.25;1632818;85;21672;-92
2022/12/25 11:03:59;;;;;;;110.32;28.85;;;;;;;4.74;100.00;101196.89;1642678;85;21061;-92
2022/12/25 11:06:30;;;;;;;118.62;29.77;;;;;;;4.71;100.00;101196.78;1644438;86;21152;-91
2022/12/25 11:09:00;;;;;;;119.97;30.00;;;;;;;4.73;100.00;101197.38;1640353;85;21642;-93
2022/12/25 11:11:28;;;;;;;125.42;32.33;;;;;;;4.68;100.00;101187.85;1640573;85;21132;-93
2022/12/25 11:14:00;;;;;;;131.22;33.67;;;;;;;4.74;100.00;101197.70;1641590;85;21517;-88
2022/12/25 11:16:38;;;;;;;132.30;32.77;;;;;;;4.72;100.00;101199.75;1635694;86;21603;-91
2022/12/25 11:19:30;;;;;;;134.70;30.97;;;;;;;4.76;100.00;101198.81;1630010;87;21217;-91
2022/12/25 11:22:00;;;;;;;143.97;32.38;;;;;;;4.75;100.00;101200.67;1627108;86;21070;-89
2022/12/25 11:24:30;;;;;;;124.22;28.38;;;;;;;4.68;100.00;101201.20;1626648;86;21117;-91
2022/12/25 11:27:02;;;;;;;120.17;29.32;;;;;;;4.66;100.00;101203.77;1550261;90;21062;-91
2022/12/25 11:29:43;;;;;;;121.55;28.38;;;;;;;4.67;100.00;101208.06;1549667;92;21874;-90
2022/12/25 11:32:17;;;;;;;123.70;29.90;;;;;;;4.63;100.00;101209.52;1674006;83;21159;-90
2022/12/25 11:34:46;;;;;;;121.05;30.10;;;;;;;4.66;100.00;101207.77;1607568;86;21661;-90
2022/12/25 11:37:21;;;;;;;127.92;30.80;;;;;;;4.67;100.00;101209.40;1611168;88;21095;-90
2022/12/25 11:39:47;;;;;;;135.32;32.60;;;;;;;4.69;100.00;101206.02;1526266;91;21061;-89
2022/12/25 11:42:31;;;;;;;134.10;31.48;;;;;;;4.69;100.00;101210.84;1530671;91;21160;-92
2022/12/25 11:48:43;;;;;;;136.85;29.57;;;;;;;4.65;100.00;101216.81;1526730;91;21107;-90
2022/12/25 11:51:09;;;;;;;142.05;30.88;;;;;;;4.66;100.00;101215.78;1526296;91;21397;-90
2022/12/25 12:01:01;;;;;;;143.02;30.68;;;;;;;4.66;100.00;101219.78;1527324;91;21208;-90
2022/12/25 12:03:32;;;;;;;145.20;31.73;;;;;;;4.64;100.00;101221.30;1533974;92;21165;-88
2022/12/25 12:06:09;;;;;;;157.25;34.70;;;;;;;4.61;100.00;101223.57;1532923;92;21393;-90
2022/12/25 12:08:36;;;;;;;157.62;32.48;;;;;;;4.64;100.00;101231.98;1529841;91;21219;-89
2022/12/25 12:11:17;;;;;;;154.05;33.50;;;;;;;4.69;100.00;101229.53;1519649;91;21103;-91
2022/12/25 12:14:24;;;;;;;128.42;31.20;;;;;;;4.72;100.00;101226.45;1519102;91;21104;-91
2022/12/25 12:16:50;;;;;;;148.78;31.33;;;;;;;4.70;100.00;101225.82;1498957;91;21546;-90
2022/12/25 12:19:29;;;;;;;142.98;32.20;;;;;;;4.74;100.00;101224.92;1554788;91;21614;-91
2022/12/25 12:22:00;;;;;;;135.48;32.40;;;;;;;4.71;100.00;101232.82;1554449;91;21085;-92
2022/12/25 12:24:35;;;;;;;142.85;33.08;;;;;;;4.71;100.00;101228.82;1565782;90;21072;-88
2022/12/25 12:27:09;;;;;;;148.65;32.83;;;;;;;4.76;100.00;101230.86;1539004;91;21146;-92
2022/12/25 12:29:49;;;;;;;138.35;32.13;;;;;;;4.80;100.00;101230.77;1487809;95;21139;-94
2022/12/25 12:32:40;;;;;;;164.97;33.50;;;;;;;4.84;100.00;101236.52;1465256;95;21200;-92
2022/12/25 12:35:13;;;;;;;138.03;33.02;;;;;;;4.84;100.00;101236.00;1463855;95;21169;-92
2022/12/25 12:37:41;;;;;;;147.20;32.25;;;;;;;4.80;100.00;101232.11;1429226;98;21671;-93
2022/12/25 12:40:30;;;;;;;140.65;34.27;;;;;;;4.80;100.00;101227.28;1429857;99;21133;-92
2022/12/25 12:42:56;;;;;;;128.32;32.30;;;;;;;4.77;100.00;101231.19;1435202;97;21379;-93
2022/12/25 12:45:34;;;;;;;141.60;34.85;;;;;;;4.69;100.00;101223.37;1431834;98;21224;-91
2022/12/25 12:55:34;;;;;;;151.15;36.88;;;;;;;4.72;100.00;101236.31;1395272;102;21312;-90
2022/12/25 12:58:05;;;;;;;141.57;35.95;;;;;;;4.65;100.00;101238.98;1370035;101;21171;-90
2022/12/25 13:00:39;;;;;;;124.75;34.15;;;;;;;4.66;100.00;101245.95;1369719;103;21202;-92
2022/12/25 13:03:43;;;;;;;131.80;34.67;;;;;;;4.62;100.00;101244.73;1372207;103;21358;-92
2022/12/25 13:06:20;;;;;;;144.75;35.48;;;;;;;4.61;100.00;101244.41;1372000;102;26790;-91
2022/12/25 13:09:01;;;;;;;123.67;32.23;;;;;;;4.63;100.00;101249.55;1371798;103;21056;-88
2022/12/25 13:11:35;;;;;;;123.82;31.10;;;;;;;4.60;100.00;101253.97;1380990;103;21268;-88
2022/12/25 13:14:02;;;;;;;115.70;30.37;;;;;;;4.63;100.00;101255.70;1371771;103;21208;-90
2022/12/25 13:16:34;;;;;;;116.57;30.85;;;;;;;4.60;100.00;101259.30;1380026;103;21170;-90
2022/12/25 13:19:07;;;;;;;121.13;33.13;;;;;;;4.64;100.00;101267.20;1393381;102;21124;-91
2022/12/25 13:21:34;;;;;;;124.22;31.93;;;;;;;4.64;100.00;101268.53;1391789;101;21189;-90
2022/12/25 13:24:09;;;;;;;115.10;29.45;;;;;;;4.69;100.00;101269.58;1395883;101;21161;-91
2022/12/25 13:26:35;;;;;;;112.12;28.70;;;;;;;4.70;100.00;101273.06;1393930;101;21218;-90
2022/12/25 13:29:04;;;;;;;110.85;28.65;;;;;;;4.73;100.00;101282.00;1426447;98;21173;-91
2022/12/25 13:31:30;;;;;;;110.65;28.95;;;;;;;4.74;100.00;101284.47;1491318;95;21157;-90
2022/12/25 17:01:18;;;;;;;224.80;43.60;;;;;;;2.99;100.00;101392.73;1815275;78;26149;-91
2022/12/25 17:03:47;;;;;;;216.82;43.28;;;;;;;3.41;100.00;101393.23;1779122;80;21094;-90
2022/12/25 17:06:21;;;;;;;218.20;43.00;;;;;;;3.61;100.00;101397.87;1770971;80;21084;-90
2022/12/25 17:08:51;;;;;;;172.30;36.30;;;;;;;3.76;100.00;101390.59;1778971;80;21094;-91
2022/12/25 17:11:23;;;;;;;182.50;38.20;;;;;;;3.88;100.00;101397.53;1780037;80;20960;-90
2022/12/25 17:13:48;;;;;;;158.68;35.13;;;;;;;3.98;100.00;101394.02;1749053;80;21054;-91
2022/12/25 17:19:54;;;;;;;146.10;29.92;;;;;;;4.19;100.00;101390.95;1786687;80;21631;-91
2022/12/25 17:22:21;;;;;;;121.35;27.80;;;;;;;4.27;100.00;101386.28;1779764;79;21043;-91
2022/12/25 17:24:47;;;;;;;123.22;30.48;;;;;;;4.31;100.00;101382.17;1758832;80;21075;-89
2022/12/25 17:27:13;;;;;;;126.90;30.60;;;;;;;4.39;100.00;101387.87;1746964;80;21515;-91
2022/12/25 17:29:40;;;;;;;119.60;31.87;;;;;;;4.53;100.00;101388.23;1763554;80;21047;-90
2022/12/25 17:32:07;;;;;;;120.47;30.27;;;;;;;4.62;100.00;101386.20;1758449;80;21140;-91
2022/12/25 17:34:33;;;;;;;112.83;31.05;;;;;;;4.63;100.00;101384.36;1761586;80;21187;-90
2022/12/25 17:37:00;;;;;;;116.12;28.35;;;;;;;4.64;100.00;101389.48;1766454;80;21069;-90
2022/12/25 17:39:26;;;;;;;110.65;29.65;;;;;;;4.67;100.00;101388.26;1767604;80;21114;-90
2022/12/25 17:41:54;;;;;;;123.28;28.52;;;;;;;4.71;100.00;101390.34;1774097;80;21043;-90
2022/12/25 17:44:20;;;;;;;109.40;26.97;;;;;;;4.73;100.00;101390.94;1769470;80;21614;-90
2022/12/25 17:46:48;;;;;;;116.70;28.65;;;;;;;4.75;100.00;101390.23;1757205;80;21095;-91
2022/12/25 17:49:18;;;;;;;112.52;28.55;;;;;;;4.74;100.00;101391.79;1766296;80;21004;-89
2022/12/25 17:51:47;;;;;;;121.65;29.27;;;;;;;4.71;100.00;101387.67;1769137;80;21102;-90
2022/12/25 17:54:13;;;;;;;114.10;29.05;;;;;;;4.73;100.00;101388.78;1762243;79;21003;-90
2022/12/25 17:56:40;;;;;;;105.25;29.57;;;;;;;4.70;100.00;101391.86;1777143;80;21974;-89
2022/12/25 17:59:07;;;;;;;111.85;29.35;;;;;;;4.72;100.00;101393.83;1756613;80;21429;-89
2022/12/25 18:01:36;;;;;;;97.62;28.17;;;;;;;4.75;100.00;101391.57;1776470;79;21048;-90
2022/12/25 18:04:04;;;;;;;109.40;30.32;;;;;;;4.69;100.00;101385.70;1774131;80;21089;-90
2022/12/25 18:06:34;;;;;;;110.95;33.45;;;;;;;4.75;100.00;101384.08;1757971;80;21611;-90
2022/12/25 18:09:00;;;;;;;111.00;29.60;;;;;;;4.79;100.00;101389.31;1776623;80;21300;-94
2022/12/25 18:11:31;;;;;;;113.52;30.00;;;;;;;4.80;100.00;101395.50;1769866;80;21035;-93
2022/12/25 18:14:03;;;;;;;120.22;31.45;;;;;;;4.80;100.00;101388.31;1764897;80;20988;-90
2022/12/25 18:16:34;;;;;;;104.10;29.25;;;;;;;4.80;100.00;101395.50;1750434;80;21188;-88